Kezdőlap
METAR-TAF:

METAR-TAF

Repülőterek :

St. George’s, Grenada

földrajzi szélesség: 12-00N, földrajzi hosszúság: 061-47W, magasság: 6 m

Jelenlegi meteorológiai megfigyelések

A jelentés 56 perccel ezelõtt készült, 06:00 UTC
Keleti szél 11 kt
Hőmérséklet 28°C
Páratartalom 84%
Légköri nyomás 1012 hPa
Látótávolság 10 km, vagy több
Szakadozott felhőzet 1800 lábon
Záporok a közelben

METAR: TGPY 130600Z 09011KT 9999 VCSH BKN018 28/25 Q1012 NOSIG RMK VCSH-NE,NW

Idő: 02:56 (06:56 UTC)

Előrejelzés

A jelentés 2 órával és 56 perccel ezelõtt készült, 04:00 UTC
Az előrejelzés 13-én 06 óra UTC és 14-én 06 óra UTC között érvényes
Keleti szél 8 kt
Látótávolság 10 km, vagy több
Kevés felhő 1900 lábon
13-én 10 óra UTC és 13-én 12 óra UTC között fokozatosan kialakuló
Kelet-délkeleti szél 15 kt

TAF: TGPY 130400Z 1306/1406 09008KT 9999 FEW019 BECMG 1310/1312 12015KT

Meteorológiai megfigyelések és előrejelzések több, mint 4000 repülőtéren (METAR és TAF jelentéseket).

A térképen piros és sárga pontok jelzik az elérhető meteorológiai állomásokat.

Mozgassa az egeret a pont fölött, hogy megjelenjen az állomás neve.

Azután kattintson az időjárási megfigyelések és előrejelzések megtekintéséhez.

A térkép megváltoztatása: kattintson a fekete keresztel jelölt zöld gombra ráközelítéshez, a vonallal jelölt zöld gombra távolításhoz, vagy a zöld nyilakra a szomszédos térképek eléréséhez.


METAR-TAF: